sensor_id;sensor_type;location;lat;lon;timestamp;pressure;altitude;pressure_sealevel;temperature;humidity
6389;BME280;3227;42.654;23.360;2023-01-01T00:01:14;95833.28;;;7.46;82.02
6389;BME280;3227;42.654;23.360;2023-01-01T00:03:43;95848.16;;;7.33;80.86
6389;BME280;3227;42.654;23.360;2023-01-01T00:06:14;95841.94;;;7.24;82.52
6389;BME280;3227;42.654;23.360;2023-01-01T00:08:41;95837.84;;;7.30;82.37
6389;BME280;3227;42.654;23.360;2023-01-01T00:11:08;95846.34;;;7.30;82.77
6389;BME280;3227;42.654;23.360;2023-01-01T00:13:36;95790.09;;;7.00;82.45
6389;BME280;3227;42.654;23.360;2023-01-01T00:16:04;95838.75;;;7.32;82.32
6389;BME280;3227;42.654;23.360;2023-01-01T00:18:31;95840.84;;;7.18;83.71
6389;BME280;3227;42.654;23.360;2023-01-01T00:21:03;95844.00;;;7.11;84.68
6389;BME280;3227;42.654;23.360;2023-01-01T00:23:30;95846.59;;;7.12;84.42
6389;BME280;3227;42.654;23.360;2023-01-01T00:25:57;95844.19;;;7.17;83.85
6389;BME280;3227;42.654;23.360;2023-01-01T00:28:29;95843.63;;;7.24;81.92
6389;BME280;3227;42.654;23.360;2023-01-01T00:30:56;95858.84;;;7.22;80.79
6389;BME280;3227;42.654;23.360;2023-01-01T00:33:22;95863.13;;;7.23;80.87
6389;BME280;3227;42.654;23.360;2023-01-01T00:35:49;95858.78;;;7.21;80.54
6389;BME280;3227;42.654;23.360;2023-01-01T00:38:22;95855.38;;;7.20;81.24
6389;BME280;3227;42.654;23.360;2023-01-01T00:40:49;95850.06;;;7.14;81.89
6389;BME280;3227;42.654;23.360;2023-01-01T00:43:16;95847.59;;;7.16;81.91
6389;BME280;3227;42.654;23.360;2023-01-01T00:45:43;95859.50;;;7.17;81.64
6389;BME280;3227;42.654;23.360;2023-01-01T00:48:13;95826.44;;;6.95;79.91
6389;BME280;3227;42.654;23.360;2023-01-01T00:50:39;95855.81;;;7.09;80.05
6389;BME280;3227;42.654;23.360;2023-01-01T00:53:06;95856.59;;;7.06;80.06
6389;BME280;3227;42.654;23.360;2023-01-01T00:55:34;95857.34;;;7.04;80.75
6389;BME280;3227;42.654;23.360;2023-01-01T00:58:01;95862.44;;;7.04;81.36
6389;BME280;3227;42.654;23.360;2023-01-01T01:00:28;95864.06;;;7.02;79.95
6389;BME280;3227;42.654;23.360;2023-01-01T01:02:54;95865.47;;;6.94;80.20
6389;BME280;3227;42.654;23.360;2023-01-01T01:05:21;95855.97;;;6.88;80.95
6389;BME280;3227;42.654;23.360;2023-01-01T01:07:58;95859.56;;;6.95;81.91
6389;BME280;3227;42.654;23.360;2023-01-01T01:10:25;95854.34;;;6.90;82.16
6389;BME280;3227;42.654;23.360;2023-01-01T01:12:53;95801.34;;;6.56;82.24
6389;BME280;3227;42.654;23.360;2023-01-01T01:15:20;95852.34;;;6.81;82.50
6389;BME280;3227;42.654;23.360;2023-01-01T01:17:47;95846.19;;;6.76;83.44
6389;BME280;3227;42.654;23.360;2023-01-01T01:20:14;95837.53;;;6.71;83.15
6389;BME280;3227;42.654;23.360;2023-01-01T01:22:41;95854.75;;;6.78;82.14
6389;BME280;3227;42.654;23.360;2023-01-01T01:25:09;95837.75;;;6.77;82.73
6389;BME280;3227;42.654;23.360;2023-01-01T01:27:35;95848.16;;;6.83;82.52
6389;BME280;3227;42.654;23.360;2023-01-01T01:30:05;95849.53;;;6.74;82.88
6389;BME280;3227;42.654;23.360;2023-01-01T01:32:32;95762.00;;;6.24;82.06
6389;BME280;3227;42.654;23.360;2023-01-01T01:34:58;95839.00;;;6.65;82.24
6389;BME280;3227;42.654;23.360;2023-01-01T01:37:25;95833.84;;;6.63;82.21
6389;BME280;3227;42.654;23.360;2023-01-01T01:39:52;95830.28;;;6.58;83.16
6389;BME280;3227;42.654;23.360;2023-01-01T01:42:19;95841.50;;;6.63;82.43
6389;BME280;3227;42.654;23.360;2023-01-01T01:44:53;95829.22;;;6.53;82.72
6389;BME280;3227;42.654;23.360;2023-01-01T01:47:27;95848.25;;;6.63;81.06
6389;BME280;3227;42.654;23.360;2023-01-01T01:49:57;95837.88;;;6.57;80.67
6389;BME280;3227;42.654;23.360;2023-01-01T01:52:27;95775.47;;;6.22;80.59
6389;BME280;3227;42.654;23.360;2023-01-01T01:54:56;95836.13;;;6.56;80.83
6389;BME280;3227;42.654;23.360;2023-01-01T01:57:24;95837.91;;;6.58;81.73
6389;BME280;3227;42.654;23.360;2023-01-01T01:59:54;95845.44;;;6.55;81.48
6389;BME280;3227;42.654;23.360;2023-01-01T02:02:29;95855.56;;;6.54;81.32
6389;BME280;3227;42.654;23.360;2023-01-01T02:04:57;95848.47;;;6.45;81.28
6389;BME280;3227;42.654;23.360;2023-01-01T02:07:25;95858.63;;;6.45;81.03
6389;BME280;3227;42.654;23.360;2023-01-01T02:09:54;95852.59;;;6.41;81.08
6389;BME280;3227;42.654;23.360;2023-01-01T02:12:21;95855.88;;;6.39;81.20
6389;BME280;3227;42.654;23.360;2023-01-01T02:14:48;95861.66;;;6.35;81.74
6389;BME280;3227;42.654;23.360;2023-01-01T02:17:21;95865.06;;;6.35;81.92
6389;BME280;3227;42.654;23.360;2023-01-01T02:20:06;95863.38;;;6.36;82.40
6389;BME280;3227;42.654;23.360;2023-01-01T02:22:52;95862.72;;;6.40;81.88
6389;BME280;3227;42.654;23.360;2023-01-01T02:25:27;95827.31;;;6.24;81.90
6389;BME280;3227;42.654;23.360;2023-01-01T02:28:06;95869.81;;;6.48;81.22
6389;BME280;3227;42.654;23.360;2023-01-01T02:30:39;95863.78;;;6.46;81.68
6389;BME280;3227;42.654;23.360;2023-01-01T02:33:10;95862.78;;;6.41;82.55
6389;BME280;3227;42.654;23.360;2023-01-01T02:35:41;95857.72;;;6.43;82.34
6389;BME280;3227;42.654;23.360;2023-01-01T02:38:12;95856.56;;;6.35;81.61
6389;BME280;3227;42.654;23.360;2023-01-01T02:40:44;95860.63;;;6.30;82.23
6389;BME280;3227;42.654;23.360;2023-01-01T02:43:12;95857.28;;;6.31;82.05
6389;BME280;3227;42.654;23.360;2023-01-01T02:45:40;95858.09;;;6.30;82.58
6389;BME280;3227;42.654;23.360;2023-01-01T02:48:38;95847.84;;;6.28;82.52
6389;BME280;3227;42.654;23.360;2023-01-01T02:51:13;95851.25;;;6.29;81.34
6389;BME280;3227;42.654;23.360;2023-01-01T02:53:47;95855.38;;;6.25;81.22
6389;BME280;3227;42.654;23.360;2023-01-01T02:56:22;95850.22;;;6.24;81.10
6389;BME280;3227;42.654;23.360;2023-01-01T02:59:03;95853.56;;;6.23;81.96
6389;BME280;3227;42.654;23.360;2023-01-01T03:01:57;95846.97;;;6.28;83.27
6389;BME280;3227;42.654;23.360;2023-01-01T03:04:31;95849.16;;;6.19;83.90
6389;BME280;3227;42.654;23.360;2023-01-01T03:07:08;95829.53;;;6.15;83.63
6389;BME280;3227;42.654;23.360;2023-01-01T03:09:42;95836.06;;;6.08;83.37
6389;BME280;3227;42.654;23.360;2023-01-01T03:12:21;95850.81;;;6.17;83.74
6389;BME280;3227;42.654;23.360;2023-01-01T03:14:52;95849.94;;;6.16;83.43
6389;BME280;3227;42.654;23.360;2023-01-01T03:17:26;95839.47;;;6.08;83.24
6389;BME280;3227;42.654;23.360;2023-01-01T03:19:58;95849.06;;;6.16;83.90
6389;BME280;3227;42.654;23.360;2023-01-01T03:22:28;95853.16;;;6.12;83.77
6389;BME280;3227;42.654;23.360;2023-01-01T03:24:59;95849.94;;;6.16;84.03
6389;BME280;3227;42.654;23.360;2023-01-01T03:27:30;95855.94;;;6.18;84.30
6389;BME280;3227;42.654;23.360;2023-01-01T03:30:00;95856.13;;;6.23;83.47
6389;BME280;3227;42.654;23.360;2023-01-01T03:32:33;95846.34;;;6.11;83.59
6389;BME280;3227;42.654;23.360;2023-01-01T03:35:17;95842.13;;;6.11;84.29
6389;BME280;3227;42.654;23.360;2023-01-01T03:37:47;95842.38;;;6.18;83.37
6389;BME280;3227;42.654;23.360;2023-01-01T03:40:16;95843.56;;;6.27;82.51
6389;BME280;3227;42.654;23.360;2023-01-01T03:42:49;95858.03;;;6.28;81.93
6389;BME280;3227;42.654;23.360;2023-01-01T03:45:20;95856.00;;;6.20;81.73
6389;BME280;3227;42.654;23.360;2023-01-01T03:47:51;95843.72;;;6.09;81.48
6389;BME280;3227;42.654;23.360;2023-01-01T03:50:20;95824.78;;;5.81;81.06
6389;BME280;3227;42.654;23.360;2023-01-01T03:52:58;95855.53;;;5.87;81.93
6389;BME280;3227;42.654;23.360;2023-01-01T03:55:30;95847.03;;;5.86;82.78
6389;BME280;3227;42.654;23.360;2023-01-01T03:58:01;95854.09;;;5.92;82.40
6389;BME280;3227;42.654;23.360;2023-01-01T04:00:33;95846.50;;;5.93;83.49
6389;BME280;3227;42.654;23.360;2023-01-01T04:03:05;95844.88;;;5.95;83.91
6389;BME280;3227;42.654;23.360;2023-01-01T04:05:35;95846.75;;;5.99;83.62
6389;BME280;3227;42.654;23.360;2023-01-01T04:08:03;95845.25;;;6.04;83.88
6389;BME280;3227;42.654;23.360;2023-01-01T04:10:33;95851.13;;;6.03;83.41
6389;BME280;3227;42.654;23.360;2023-01-01T04:13:04;95848.66;;;6.05;82.93
6389;BME280;3227;42.654;23.360;2023-01-01T04:15:31;95851.06;;;6.02;82.08
6389;BME280;3227;42.654;23.360;2023-01-01T04:18:00;95830.81;;;5.83;82.16
6389;BME280;3227;42.654;23.360;2023-01-01T04:20:28;95852.28;;;5.89;81.91
6389;BME280;3227;42.654;23.360;2023-01-01T04:22:55;95861.66;;;5.90;82.74
6389;BME280;3227;42.654;23.360;2023-01-01T04:25:22;95858.91;;;5.86;82.24
6389;BME280;3227;42.654;23.360;2023-01-01T04:27:49;95855.25;;;5.79;83.04
6389;BME280;3227;42.654;23.360;2023-01-01T04:30:16;95860.25;;;5.76;82.79
6389;BME280;3227;42.654;23.360;2023-01-01T04:32:43;95859.38;;;5.76;82.87
6389;BME280;3227;42.654;23.360;2023-01-01T04:35:11;95865.44;;;5.79;83.17
6389;BME280;3227;42.654;23.360;2023-01-01T04:37:40;95850.66;;;5.70;84.24
6389;BME280;3227;42.654;23.360;2023-01-01T04:40:08;95866.38;;;5.81;83.80
6389;BME280;3227;42.654;23.360;2023-01-01T04:42:36;95820.44;;;5.56;84.33
6389;BME280;3227;42.654;23.360;2023-01-01T04:45:03;95853.63;;;5.81;82.90
6389;BME280;3227;42.654;23.360;2023-01-01T04:47:30;95870.56;;;5.81;82.02
6389;BME280;3227;42.654;23.360;2023-01-01T04:49:57;95868.09;;;5.82;83.52
6389;BME280;3227;42.654;23.360;2023-01-01T04:52:24;95870.44;;;5.78;82.27
6389;BME280;3227;42.654;23.360;2023-01-01T04:54:52;95861.91;;;5.76;82.60
6389;BME280;3227;42.654;23.360;2023-01-01T04:57:19;95859.88;;;5.67;82.69
6389;BME280;3227;42.654;23.360;2023-01-01T04:59:45;95856.97;;;5.58;83.37
6389;BME280;3227;42.654;23.360;2023-01-01T05:02:12;95854.84;;;5.48;83.77
6389;BME280;3227;42.654;23.360;2023-01-01T05:04:39;95854.13;;;5.50;83.94
6389;BME280;3227;42.654;23.360;2023-01-01T05:07:06;95864.69;;;5.61;83.88
6389;BME280;3227;42.654;23.360;2023-01-01T05:09:32;95864.19;;;5.69;83.63
6389;BME280;3227;42.654;23.360;2023-01-01T05:12:00;95870.22;;;5.92;83.01
6389;BME280;3227;42.654;23.360;2023-01-01T05:14:27;95846.00;;;5.81;82.96
6389;BME280;3227;42.654;23.360;2023-01-01T05:16:59;95858.19;;;5.88;82.20
6389;BME280;3227;42.654;23.360;2023-01-01T05:19:26;95869.94;;;5.86;82.91
6389;BME280;3227;42.654;23.360;2023-01-01T05:21:52;95866.75;;;5.90;83.17
6389;BME280;3227;42.654;23.360;2023-01-01T05:24:20;95865.16;;;5.92;82.99
6389;BME280;3227;42.654;23.360;2023-01-01T05:26:46;95878.59;;;5.90;83.18
6389;BME280;3227;42.654;23.360;2023-01-01T05:29:15;95868.09;;;5.82;81.56
6389;BME280;3227;42.654;23.360;2023-01-01T05:31:41;95863.53;;;5.73;81.57
6389;BME280;3227;42.654;23.360;2023-01-01T05:34:09;95831.47;;;5.35;82.12
6389;BME280;3227;42.654;23.360;2023-01-01T05:36:36;95869.34;;;5.71;82.55
6389;BME280;3227;42.654;23.360;2023-01-01T05:39:05;95879.41;;;5.68;82.47
6389;BME280;3227;42.654;23.360;2023-01-01T05:41:32;95879.16;;;5.62;82.55
6389;BME280;3227;42.654;23.360;2023-01-01T05:44:00;95821.44;;;5.18;83.27
6389;BME280;3227;42.654;23.360;2023-01-01T05:46:29;95882.88;;;5.49;83.13
6389;BME280;3227;42.654;23.360;2023-01-01T05:48:55;95875.81;;;5.42;83.21
6389;BME280;3227;42.654;23.360;2023-01-01T05:51:25;95879.09;;;5.40;84.10
6389;BME280;3227;42.654;23.360;2023-01-01T05:53:53;95871.47;;;5.40;83.65
6389;BME280;3227;42.654;23.360;2023-01-01T05:56:20;95873.88;;;5.36;82.59
6389;BME280;3227;42.654;23.360;2023-01-01T05:58:47;95883.38;;;5.41;82.03
6389;BME280;3227;42.654;23.360;2023-01-01T06:01:16;95882.56;;;5.42;82.10
6389;BME280;3227;42.654;23.360;2023-01-01T06:03:44;95876.41;;;5.36;82.54
6389;BME280;3227;42.654;23.360;2023-01-01T06:06:14;95884.19;;;5.40;82.65
6389;BME280;3227;42.654;23.360;2023-01-01T06:08:41;95877.22;;;5.35;83.26
6389;BME280;3227;42.654;23.360;2023-01-01T06:11:10;95886.66;;;5.38;83.83
6389;BME280;3227;42.654;23.360;2023-01-01T06:13:37;95881.50;;;5.36;83.77
6389;BME280;3227;42.654;23.360;2023-01-01T06:16:05;95877.34;;;5.39;84.25
6389;BME280;3227;42.654;23.360;2023-01-01T06:18:33;95884.56;;;5.49;85.09
6389;BME280;3227;42.654;23.360;2023-01-01T06:21:06;95886.66;;;5.59;84.64
6389;BME280;3227;42.654;23.360;2023-01-01T06:23:33;95888.22;;;5.76;84.12
6389;BME280;3227;42.654;23.360;2023-01-01T06:26:05;95890.69;;;5.95;83.20
6389;BME280;3227;42.654;23.360;2023-01-01T06:28:32;95899.72;;;6.09;82.20
6389;BME280;3227;42.654;23.360;2023-01-01T06:31:00;95893.66;;;6.28;80.48
6389;BME280;3227;42.654;23.360;2023-01-01T06:33:27;95857.72;;;6.21;78.89
6389;BME280;3227;42.654;23.360;2023-01-01T06:35:54;95895.38;;;6.52;78.86
6389;BME280;3227;42.654;23.360;2023-01-01T06:38:22;95900.94;;;6.64;78.72
6389;BME280;3227;42.654;23.360;2023-01-01T06:40:59;95914.97;;;6.76;77.19
6389;BME280;3227;42.654;23.360;2023-01-01T06:43:28;95899.34;;;6.90;77.49
6389;BME280;3227;42.654;23.360;2023-01-01T06:45:59;95906.69;;;7.06;76.63
6389;BME280;3227;42.654;23.360;2023-01-01T06:48:27;95906.22;;;7.16;76.06
6389;BME280;3227;42.654;23.360;2023-01-01T06:50:54;95921.25;;;7.34;76.06
6389;BME280;3227;42.654;23.360;2023-01-01T06:53:24;95922.34;;;7.40;75.82
6389;BME280;3227;42.654;23.360;2023-01-01T06:55:52;95919.13;;;7.46;75.46
6389;BME280;3227;42.654;23.360;2023-01-01T06:58:18;95928.72;;;7.53;75.42
6389;BME280;3227;42.654;23.360;2023-01-01T07:00:45;95896.63;;;7.34;74.85
6389;BME280;3227;42.654;23.360;2023-01-01T07:03:12;95917.84;;;7.58;74.73
6389;BME280;3227;42.654;23.360;2023-01-01T07:05:39;95938.78;;;7.74;73.52
6389;BME280;3227;42.654;23.360;2023-01-01T07:08:06;95926.22;;;7.80;73.32
6389;BME280;3227;42.654;23.360;2023-01-01T07:10:34;95934.06;;;7.86;73.23
6389;BME280;3227;42.654;23.360;2023-01-01T07:13:00;95926.53;;;7.89;73.94
6389;BME280;3227;42.654;23.360;2023-01-01T07:15:27;95930.44;;;8.05;73.89
6389;BME280;3227;42.654;23.360;2023-01-01T07:17:55;95939.53;;;8.23;73.89
6389;BME280;3227;42.654;23.360;2023-01-01T07:20:22;95938.38;;;8.39;72.43
6389;BME280;3227;42.654;23.360;2023-01-01T07:22:49;95941.22;;;8.50;72.26
6389;BME280;3227;42.654;23.360;2023-01-01T07:25:16;95872.00;;;8.14;71.42
6389;BME280;3227;42.654;23.360;2023-01-01T07:27:44;95935.34;;;8.81;70.52
6389;BME280;3227;42.654;23.360;2023-01-01T07:30:11;95933.22;;;8.96;69.36
6389;BME280;3227;42.654;23.360;2023-01-01T07:32:38;95929.34;;;9.10;69.41
6389;BME280;3227;42.654;23.360;2023-01-01T07:35:05;95927.97;;;9.21;69.27
6389;BME280;3227;42.654;23.360;2023-01-01T07:37:32;95931.72;;;9.34;68.18
6389;BME280;3227;42.654;23.360;2023-01-01T07:39:59;95935.44;;;9.45;68.21
6389;BME280;3227;42.654;23.360;2023-01-01T07:42:26;95930.72;;;9.60;67.79
6389;BME280;3227;42.654;23.360;2023-01-01T07:44:54;95931.09;;;9.75;67.34
6389;BME280;3227;42.654;23.360;2023-01-01T07:47:22;95924.38;;;9.79;66.66
6389;BME280;3227;42.654;23.360;2023-01-01T07:49:50;95932.19;;;9.85;65.99
6389;BME280;3227;42.654;23.360;2023-01-01T07:52:17;95831.19;;;9.36;66.77
6389;BME280;3227;42.654;23.360;2023-01-01T07:54:44;95928.38;;;10.02;67.40
6389;BME280;3227;42.654;23.360;2023-01-01T07:57:11;95929.94;;;9.97;66.69
6389;BME280;3227;42.654;23.360;2023-01-01T07:59:37;95925.31;;;9.82;67.39
6389;BME280;3227;42.654;23.360;2023-01-01T08:02:06;95897.88;;;9.77;67.02
6389;BME280;3227;42.654;23.360;2023-01-01T08:04:32;95936.00;;;10.01;66.67
6389;BME280;3227;42.654;23.360;2023-01-01T08:06:59;95940.56;;;10.12;66.66
6389;BME280;3227;42.654;23.360;2023-01-01T08:09:26;95937.97;;;10.11;66.03
6389;BME280;3227;42.654;23.360;2023-01-01T08:11:53;95932.00;;;10.12;66.37
6389;BME280;3227;42.654;23.360;2023-01-01T08:14:23;95945.22;;;10.27;67.16
6389;BME280;3227;42.654;23.360;2023-01-01T08:16:50;95948.16;;;10.44;66.18
6389;BME280;3227;42.654;23.360;2023-01-01T08:19:18;95943.19;;;10.50;65.32
6389;BME280;3227;42.654;23.360;2023-01-01T08:21:44;95954.00;;;10.37;66.38
6389;BME280;3227;42.654;23.360;2023-01-01T08:24:11;95941.75;;;10.25;66.31
6389;BME280;3227;42.654;23.360;2023-01-01T08:26:43;95949.84;;;10.09;65.91
6389;BME280;3227;42.654;23.360;2023-01-01T08:29:10;95932.31;;;9.89;66.85
6389;BME280;3227;42.654;23.360;2023-01-01T08:31:37;95957.31;;;10.00;67.33
6389;BME280;3227;42.654;23.360;2023-01-01T08:34:03;95952.88;;;9.92;67.87
6389;BME280;3227;42.654;23.360;2023-01-01T08:36:32;95950.41;;;9.96;68.88
6389;BME280;3227;42.654;23.360;2023-01-01T08:38:59;95935.69;;;9.88;69.14
6389;BME280;3227;42.654;23.360;2023-01-01T08:41:25;95952.31;;;10.04;68.81
6389;BME280;3227;42.654;23.360;2023-01-01T08:43:52;95956.84;;;10.16;66.85
6389;BME280;3227;42.654;23.360;2023-01-01T08:46:19;95954.16;;;10.10;66.33
6389;BME280;3227;42.654;23.360;2023-01-01T08:48:46;95932.94;;;9.81;66.78
6389;BME280;3227;42.654;23.360;2023-01-01T08:51:12;95947.38;;;9.77;67.41
6389;BME280;3227;42.654;23.360;2023-01-01T08:53:41;95947.81;;;9.61;67.50
6389;BME280;3227;42.654;23.360;2023-01-01T08:56:09;95943.00;;;9.42;68.11
6389;BME280;3227;42.654;23.360;2023-01-01T08:58:37;95939.94;;;9.24;68.97
6389;BME280;3227;42.654;23.360;2023-01-01T09:01:05;95949.81;;;9.10;69.78
6389;BME280;3227;42.654;23.360;2023-01-01T09:03:32;95926.06;;;8.84;70.12
6389;BME280;3227;42.654;23.360;2023-01-01T09:05:59;95940.69;;;8.88;70.65
6389;BME280;3227;42.654;23.360;2023-01-01T09:08:26;95937.75;;;8.76;71.34
6389;BME280;3227;42.654;23.360;2023-01-01T09:10:57;95947.94;;;8.74;71.32
6389;BME280;3227;42.654;23.360;2023-01-01T09:13:24;95937.66;;;8.73;71.65
6389;BME280;3227;42.654;23.360;2023-01-01T09:15:51;95930.09;;;8.76;71.82
6389;BME280;3227;42.654;23.360;2023-01-01T09:18:18;95910.16;;;8.64;71.57
6389;BME280;3227;42.654;23.360;2023-01-01T09:20:45;95913.28;;;8.84;71.53
6389;BME280;3227;42.654;23.360;2023-01-01T09:23:12;95920.56;;;9.00;71.53
6389;BME280;3227;42.654;23.360;2023-01-01T09:25:39;95911.97;;;8.98;71.05
6389;BME280;3227;42.654;23.360;2023-01-01T09:28:09;95911.00;;;8.93;71.12
6389;BME280;3227;42.654;23.360;2023-01-01T09:30:37;95855.88;;;8.73;71.59
6389;BME280;3227;42.654;23.360;2023-01-01T09:33:03;95899.75;;;9.18;71.40
6389;BME280;3227;42.654;23.360;2023-01-01T09:35:30;95850.72;;;9.01;70.16
6389;BME280;3227;42.654;23.360;2023-01-01T09:37:57;95890.81;;;9.35;70.23
6389;BME280;3227;42.654;23.360;2023-01-01T09:40:28;95893.44;;;9.37;70.08
6389;BME280;3227;42.654;23.360;2023-01-01T09:43:07;95897.94;;;9.45;70.17
6389;BME280;3227;42.654;23.360;2023-01-01T09:45:43;95836.53;;;9.12;69.78
6389;BME280;3227;42.654;23.360;2023-01-01T09:48:17;95897.13;;;9.48;69.83
6389;BME280;3227;42.654;23.360;2023-01-01T09:50:45;95892.13;;;9.52;70.39
6389;BME280;3227;42.654;23.360;2023-01-01T09:53:15;95886.28;;;9.58;70.37
6389;BME280;3227;42.654;23.360;2023-01-01T09:55:45;95891.59;;;9.66;69.32
6389;BME280;3227;42.654;23.360;2023-01-01T09:58:17;95886.72;;;9.75;69.75
6389;BME280;3227;42.654;23.360;2023-01-01T10:00:51;95863.22;;;9.55;69.54
6389;BME280;3227;42.654;23.360;2023-01-01T10:03:29;95885.75;;;9.70;70.26
6389;BME280;3227;42.654;23.360;2023-01-01T10:06:07;95884.84;;;9.68;70.28
6389;BME280;3227;42.654;23.360;2023-01-01T10:08:47;95882.81;;;9.56;71.68
6389;BME280;3227;42.654;23.360;2023-01-01T10:11:23;95876.41;;;9.39;72.46
6389;BME280;3227;42.654;23.360;2023-01-01T10:13:56;95869.59;;;9.38;73.10
6389;BME280;3227;42.654;23.360;2023-01-01T10:16:30;95873.63;;;9.63;73.48
6389;BME280;3227;42.654;23.360;2023-01-01T10:19:04;95867.25;;;9.81;73.86
6389;BME280;3227;42.654;23.360;2023-01-01T10:21:35;95871.66;;;10.23;74.31
6389;BME280;3227;42.654;23.360;2023-01-01T10:24:17;95868.38;;;10.67;70.93
6389;BME280;3227;42.654;23.360;2023-01-01T10:26:49;95867.56;;;10.68;67.91
6389;BME280;3227;42.654;23.360;2023-01-01T10:29:23;95866.38;;;10.53;68.06
6389;BME280;3227;42.654;23.360;2023-01-01T10:31:51;95822.16;;;10.24;68.74
6389;BME280;3227;42.654;23.360;2023-01-01T10:34:22;95859.72;;;10.61;69.09
6389;BME280;3227;42.654;23.360;2023-01-01T10:36:53;95862.03;;;10.50;68.95
6389;BME280;3227;42.654;23.360;2023-01-01T10:39:20;95858.41;;;10.41;69.40
6389;BME280;3227;42.654;23.360;2023-01-01T10:41:47;95855.09;;;10.46;69.46
6389;BME280;3227;42.654;23.360;2023-01-01T10:44:15;95856.13;;;10.54;69.25
6389;BME280;3227;42.654;23.360;2023-01-01T10:46:47;95834.97;;;10.64;69.42
6389;BME280;3227;42.654;23.360;2023-01-01T10:49:16;95834.53;;;10.84;68.69
6389;BME280;3227;42.654;23.360;2023-01-01T10:51:45;95774.81;;;10.46;68.56
6389;BME280;3227;42.654;23.360;2023-01-01T10:54:24;95829.19;;;10.73;68.95
6389;BME280;3227;42.654;23.360;2023-01-01T10:56:57;95826.53;;;10.68;68.65
6389;BME280;3227;42.654;23.360;2023-01-01T10:59:33;95818.25;;;10.82;69.08
6389;BME280;3227;42.654;23.360;2023-01-01T11:02:19;95813.13;;;10.82;69.05
6389;BME280;3227;42.654;23.360;2023-01-01T11:04:48;95755.47;;;10.63;69.11
6389;BME280;3227;42.654;23.360;2023-01-01T11:07:27;95805.03;;;11.07;68.08
6389;BME280;3227;42.654;23.360;2023-01-01T11:09:58;95810.53;;;11.27;68.45
6389;BME280;3227;42.654;23.360;2023-01-01T11:12:29;95802.84;;;11.28;67.58
6389;BME280;3227;42.654;23.360;2023-01-01T11:14:57;95811.50;;;11.33;67.37
6389;BME280;3227;42.654;23.360;2023-01-01T11:17:28;95788.47;;;11.36;67.54
6389;BME280;3227;42.654;23.360;2023-01-01T11:19:57;95796.56;;;11.62;66.94
6389;BME280;3227;42.654;23.360;2023-01-01T11:22:36;95794.19;;;11.73;66.57
6389;BME280;3227;42.654;23.360;2023-01-01T11:25:16;95797.84;;;11.87;66.06
6389;BME280;3227;42.654;23.360;2023-01-01T11:28:15;95793.56;;;11.85;66.10
6389;BME280;3227;42.654;23.360;2023-01-01T11:30:58;95787.34;;;11.73;65.99
6389;BME280;3227;42.654;23.360;2023-01-01T11:33:29;95792.47;;;11.72;65.92
6389;BME280;3227;42.654;23.360;2023-01-01T11:35:57;95783.84;;;11.67;66.48
6389;BME280;3227;42.654;23.360;2023-01-01T11:38:24;95780.56;;;11.75;67.05
6389;BME280;3227;42.654;23.360;2023-01-01T11:40:53;95781.59;;;11.85;65.81
6389;BME280;3227;42.654;23.360;2023-01-01T11:43:23;95769.72;;;11.95;66.90
6389;BME280;3227;42.654;23.360;2023-01-01T11:45:53;95775.97;;;12.10;65.45
6389;BME280;3227;42.654;23.360;2023-01-01T11:48:25;95768.34;;;12.18;64.80
6389;BME280;3227;42.654;23.360;2023-01-01T11:50:55;95760.56;;;12.13;64.54
6389;BME280;3227;42.654;23.360;2023-01-01T11:53:28;95724.31;;;11.92;65.36
6389;BME280;3227;42.654;23.360;2023-01-01T11:56:02;95753.72;;;12.14;64.93
6389;BME280;3227;42.654;23.360;2023-01-01T11:58:37;95760.41;;;12.01;65.76
6389;BME280;3227;42.654;23.360;2023-01-01T12:01:11;95756.25;;;12.09;65.30
6389;BME280;3227;42.654;23.360;2023-01-01T12:03:42;95745.00;;;12.03;66.07
6389;BME280;3227;42.654;23.360;2023-01-01T12:06:17;95757.03;;;12.05;66.00
6389;BME280;3227;42.654;23.360;2023-01-01T12:08:49;95753.81;;;12.18;66.07
6389;BME280;3227;42.654;23.360;2023-01-01T12:11:20;95726.94;;;11.97;65.77
6389;BME280;3227;42.654;23.360;2023-01-01T12:13:53;95752.13;;;12.24;65.88
6389;BME280;3227;42.654;23.360;2023-01-01T12:16:23;95745.31;;;12.27;65.41
6389;BME280;3227;42.654;23.360;2023-01-01T12:18:59;95740.31;;;12.38;64.88
6389;BME280;3227;42.654;23.360;2023-01-01T12:21:28;95738.00;;;12.57;64.39
6389;BME280;3227;42.654;23.360;2023-01-01T12:23:57;95746.47;;;12.52;63.92
6389;BME280;3227;42.654;23.360;2023-01-01T12:26:25;95745.69;;;12.56;64.47
6389;BME280;3227;42.654;23.360;2023-01-01T12:29:18;95727.59;;;12.47;64.40
6389;BME280;3227;42.654;23.360;2023-01-01T12:31:58;95734.47;;;12.49;65.38
6389;BME280;3227;42.654;23.360;2023-01-01T12:34:33;95735.44;;;12.57;64.40
6389;BME280;3227;42.654;23.360;2023-01-01T12:37:10;95736.31;;;12.63;64.31
6389;BME280;3227;42.654;23.360;2023-01-01T12:42:47;95730.31;;;12.62;65.29
6389;BME280;3227;42.654;23.360;2023-01-01T12:45:45;95730.31;;;12.62;64.61
6389;BME280;3227;42.654;23.360;2023-01-01T12:51:25;95735.47;;;12.62;64.01
6389;BME280;3227;42.654;23.360;2023-01-01T12:56:56;95725.16;;;12.59;64.43
6389;BME280;3227;42.654;23.360;2023-01-01T12:59:28;95739.03;;;12.73;63.67
6389;BME280;3227;42.654;23.360;2023-01-01T13:01:57;95733.94;;;12.76;64.58
6389;BME280;3227;42.654;23.360;2023-01-01T13:04:26;95740.88;;;12.86;64.21
6389;BME280;3227;42.654;23.360;2023-01-01T13:06:56;95740.19;;;13.01;64.23
6389;BME280;3227;42.654;23.360;2023-01-01T13:09:32;95732.63;;;13.15;63.80
6389;BME280;3227;42.654;23.360;2023-01-01T13:12:04;95730.13;;;13.22;62.80
6389;BME280;3227;42.654;23.360;2023-01-01T13:14:37;95731.94;;;13.36;61.88
6389;BME280;3227;42.654;23.360;2023-01-01T13:17:04;95737.16;;;13.42;62.27
6389;BME280;3227;42.654;23.360;2023-01-01T13:19:42;95732.91;;;13.48;62.20
6389;BME280;3227;42.654;23.360;2023-01-01T13:22:38;95728.72;;;13.62;61.91
6389;BME280;3227;42.654;23.360;2023-01-01T13:25:20;95716.66;;;13.57;62.13
6389;BME280;3227;42.654;23.360;2023-01-01T13:28:11;95677.06;;;13.41;61.47
6389;BME280;3227;42.654;23.360;2023-01-01T13:30:48;95721.94;;;13.74;61.03
6389;BME280;3227;42.654;23.360;2023-01-01T13:33:18;95734.84;;;13.78;61.27
6389;BME280;3227;42.654;23.360;2023-01-01T13:38:49;95727.06;;;13.72;61.21
6389;BME280;3227;42.654;23.360;2023-01-01T13:41:29;95724.47;;;13.70;63.12
6389;BME280;3227;42.654;23.360;2023-01-01T13:44:17;95720.19;;;13.66;62.96
6389;BME280;3227;42.654;23.360;2023-01-01T13:47:04;95727.03;;;13.69;63.11
6389;BME280;3227;42.654;23.360;2023-01-01T13:49:46;95677.06;;;13.41;62.22